createdAt,value
2023-04-09T00:01:29.980Z,7.14
2023-04-09T00:04:01.106Z,7.19
2023-04-09T00:06:29.327Z,7.16
2023-04-09T00:08:57.655Z,7.31
2023-04-09T00:11:26.165Z,7.28
2023-04-09T00:13:54.119Z,7.18
2023-04-09T00:16:22.208Z,7.11
2023-04-09T00:18:52.289Z,7.06
2023-04-09T00:21:20.871Z,7.03
2023-04-09T00:23:48.995Z,7.03
2023-04-09T00:26:17.197Z,7.03
2023-04-09T00:28:45.224Z,7.02
2023-04-09T00:31:13.661Z,7.04
2023-04-09T00:33:42.349Z,7.04
2023-04-09T00:36:12.126Z,7.01
2023-04-09T00:38:40.937Z,7.07
2023-04-09T00:41:09.407Z,7.14
2023-04-09T00:43:37.461Z,7.16
2023-04-09T00:46:06.073Z,7.09
2023-04-09T00:48:34.422Z,7.04
2023-04-09T00:51:02.564Z,7.01
2023-04-09T00:53:32.108Z,6.68
2023-04-09T00:56:00.404Z,6.89
2023-04-09T00:58:28.624Z,6.93
2023-04-09T01:00:56.835Z,6.92
2023-04-09T01:03:25.541Z,6.89
2023-04-09T01:06:04.388Z,7.01
2023-04-09T01:08:42.914Z,6.97
2023-04-09T01:11:22.074Z,7.04
2023-04-09T01:14:00.143Z,7.24
2023-04-09T01:16:31.090Z,7.29
2023-04-09T01:19:04.405Z,7.34
2023-04-09T01:21:35.341Z,7.33
2023-04-09T01:24:21.436Z,7.29
2023-04-09T01:26:58.426Z,7.34
2023-04-09T01:29:32.715Z,7.29
2023-04-09T01:32:03.662Z,7.25
2023-04-09T01:34:33.824Z,7.16
2023-04-09T01:37:04.859Z,7.30
2023-04-09T01:39:34.839Z,7.37
2023-04-09T01:42:04.058Z,7.33
2023-04-09T01:44:34.397Z,7.34
2023-04-09T01:47:03.232Z,7.28
2023-04-09T01:49:32.355Z,7.26
2023-04-09T01:52:01.929Z,7.17
2023-04-09T01:54:31.349Z,6.96
2023-04-09T01:56:59.626Z,7.10
2023-04-09T01:59:27.770Z,6.93
2023-04-09T02:02:02.689Z,6.86
2023-04-09T02:04:35.796Z,6.84
2023-04-09T02:07:08.419Z,6.81
2023-04-09T02:09:40.645Z,6.72
2023-04-09T02:12:13.946Z,6.73
2023-04-09T02:14:42.930Z,6.71
2023-04-09T02:17:13.273Z,6.59
2023-04-09T02:19:42.112Z,6.68
2023-04-09T02:22:10.999Z,6.69
2023-04-09T02:24:39.967Z,6.84
2023-04-09T02:27:08.471Z,6.79
2023-04-09T02:29:38.060Z,6.52
2023-04-09T02:32:07.390Z,6.54
2023-04-09T02:34:39.215Z,6.47
2023-04-09T02:37:07.536Z,6.43
2023-04-09T02:39:35.404Z,6.60
2023-04-09T02:42:03.698Z,6.53
2023-04-09T02:44:32.039Z,6.55
2023-04-09T02:47:00.408Z,6.51
2023-04-09T02:49:28.708Z,6.50
2023-04-09T02:51:58.243Z,6.54
2023-04-09T02:54:26.464Z,6.64
2023-04-09T02:56:54.562Z,6.42
2023-04-09T02:59:22.871Z,6.48
2023-04-09T03:01:50.889Z,6.34
2023-04-09T03:04:19.250Z,6.23
2023-04-09T03:06:47.632Z,6.20
2023-04-09T03:09:17.261Z,6.10
2023-04-09T03:11:45.403Z,6.01
2023-04-09T03:14:13.476Z,6.13
2023-04-09T03:16:41.469Z,6.28
2023-04-09T03:19:09.762Z,6.12
2023-04-09T03:21:39.461Z,6.13
2023-04-09T03:24:07.706Z,6.13
2023-04-09T03:26:38.751Z,6.22
2023-04-09T03:29:07.723Z,6.13
2023-04-09T03:31:35.956Z,6.09
2023-04-09T03:34:04.238Z,6.13
2023-04-09T03:36:32.994Z,6.24
2023-04-09T03:39:01.878Z,6.43
2023-04-09T03:41:30.289Z,6.34
2023-04-09T03:43:59.690Z,6.42
2023-04-09T03:46:27.959Z,6.36
2023-04-09T03:48:56.458Z,6.32
2023-04-09T03:51:24.635Z,6.19
2023-04-09T03:53:52.717Z,6.27
2023-04-09T03:56:20.985Z,6.16
2023-04-09T03:58:50.209Z,6.13
2023-04-09T04:01:19.946Z,6.40
2023-04-09T04:03:50.204Z,6.51
2023-04-09T04:06:18.309Z,6.42
2023-04-09T04:08:46.629Z,6.43
2023-04-09T04:11:14.980Z,6.58
2023-04-09T04:13:43.250Z,6.60
2023-04-09T04:16:11.943Z,6.77
2023-04-09T04:18:41.436Z,6.85
2023-04-09T04:21:14.783Z,6.56
2023-04-09T04:23:43.146Z,6.96
2023-04-09T04:26:11.612Z,7.05
2023-04-09T04:28:41.446Z,6.97
2023-04-09T04:31:11.086Z,6.97
2023-04-09T04:33:43.569Z,7.15
2023-04-09T04:36:13.692Z,7.14
2023-04-09T04:38:42.491Z,7.29
2023-04-09T04:41:11.898Z,7.32
2023-04-09T04:43:41.742Z,7.27
2023-04-09T04:46:10.022Z,7.31
2023-04-09T04:48:40.283Z,7.16
2023-04-09T04:51:10.927Z,7.20
2023-04-09T04:53:39.331Z,7.22
2023-04-09T04:56:07.905Z,7.24
2023-04-09T04:58:36.039Z,7.39
2023-04-09T05:01:04.091Z,7.31
2023-04-09T05:03:31.996Z,7.35
2023-04-09T05:06:00.677Z,7.30
2023-04-09T05:08:30.660Z,7.44
2023-04-09T05:10:58.590Z,7.63
2023-04-09T05:13:26.889Z,7.61
2023-04-09T05:15:55.285Z,7.71
2023-04-09T05:18:23.419Z,7.76
2023-04-09T05:20:51.421Z,7.68
2023-04-09T05:23:19.381Z,7.69
2023-04-09T05:25:49.790Z,7.66
2023-04-09T05:28:18.116Z,7.70
2023-04-09T05:30:49.236Z,7.61
2023-04-09T05:33:18.142Z,7.61
2023-04-09T05:35:46.144Z,7.68
2023-04-09T05:38:14.749Z,7.65
2023-04-09T05:40:45.220Z,7.74
2023-04-09T05:43:14.600Z,7.76
2023-04-09T05:45:42.770Z,7.79
2023-04-09T05:48:10.917Z,7.78
2023-04-09T05:50:51.451Z,7.51
2023-04-09T05:53:22.412Z,7.91
2023-04-09T05:55:50.856Z,7.81
2023-04-09T05:58:21.732Z,8.00
2023-04-09T06:00:51.852Z,8.12
2023-04-09T06:03:20.896Z,8.21
2023-04-09T06:05:49.419Z,8.32
2023-04-09T06:08:17.473Z,8.38
2023-04-09T06:10:45.492Z,8.36
2023-04-09T06:13:13.321Z,8.28
2023-04-09T06:15:42.830Z,8.42
2023-04-09T06:18:12.445Z,8.46
2023-04-09T06:20:40.569Z,8.54
2023-04-09T06:23:08.747Z,8.45
2023-04-09T06:25:37.045Z,8.41
2023-04-09T06:28:05.566Z,8.29
2023-04-09T06:30:33.668Z,8.31
2023-04-09T06:33:03.991Z,8.41
2023-04-09T06:35:32.694Z,8.08
2023-04-09T06:38:01.046Z,8.32
2023-04-09T06:40:29.114Z,8.42
2023-04-09T06:42:57.405Z,8.60
2023-04-09T06:45:26.195Z,8.66
2023-04-09T06:47:54.390Z,8.70
2023-04-09T06:50:23.806Z,8.74
2023-04-09T06:52:52.563Z,8.97
2023-04-09T06:55:20.670Z,9.04
2023-04-09T06:57:48.762Z,9.08
2023-04-09T07:00:17.011Z,8.91
2023-04-09T07:02:45.888Z,8.97
2023-04-09T07:05:14.157Z,9.20
2023-04-09T07:07:43.540Z,9.20
2023-04-09T07:10:21.263Z,9.21
2023-04-09T07:12:49.255Z,9.00
2023-04-09T07:15:17.515Z,9.19
2023-04-09T07:17:45.735Z,9.41
2023-04-09T07:20:14.046Z,8.24
2023-04-09T07:22:43.739Z,9.15
2023-04-09T07:25:14.741Z,9.17
2023-04-09T07:27:43.495Z,9.15
2023-04-09T07:30:12.194Z,9.23
2023-04-09T07:32:40.338Z,9.60
2023-04-09T07:35:11.837Z,9.56
2023-04-09T07:37:39.966Z,9.49
2023-04-09T07:40:11.084Z,9.67
2023-04-09T07:42:39.728Z,9.64
2023-04-09T07:45:09.814Z,9.56
2023-04-09T07:47:38.333Z,9.64
2023-04-09T07:50:07.569Z,9.11
2023-04-09T07:52:35.675Z,9.32
2023-04-09T07:55:04.755Z,9.20
2023-04-09T07:57:35.210Z,9.20
2023-04-09T08:00:04.265Z,9.19
2023-04-09T08:02:32.506Z,9.09
2023-04-09T08:05:00.805Z,9.03
2023-04-09T08:07:28.861Z,8.98
2023-04-09T08:09:56.825Z,8.86
2023-04-09T08:12:24.819Z,9.08
2023-04-09T08:14:54.421Z,9.30
2023-04-09T08:17:22.452Z,9.32
2023-04-09T08:19:50.844Z,9.61
2023-04-09T08:22:18.996Z,9.59
2023-04-09T08:24:52.471Z,9.46
2023-04-09T08:27:26.590Z,9.43
2023-04-09T08:29:55.825Z,9.64
2023-04-09T08:32:23.929Z,9.57
2023-04-09T08:34:52.444Z,9.96
2023-04-09T08:37:22.725Z,10.12
2023-04-09T08:39:50.984Z,10.26
2023-04-09T08:42:20.994Z,9.96
2023-04-09T08:44:49.270Z,10.12
2023-04-09T08:47:20.229Z,10.07
2023-04-09T08:49:50.429Z,9.92
2023-04-09T08:52:22.091Z,10.32
2023-04-09T08:54:52.434Z,10.06
2023-04-09T08:57:20.643Z,9.94
2023-04-09T08:59:48.711Z,9.94
2023-04-09T09:02:18.495Z,10.12
2023-04-09T09:04:48.029Z,9.89
2023-04-09T09:07:16.566Z,10.17
2023-04-09T09:09:55.513Z,9.87
2023-04-09T09:12:35.330Z,9.84
2023-04-09T09:15:04.025Z,9.73
2023-04-09T09:17:34.243Z,9.86
2023-04-09T09:20:21.075Z,10.32
2023-04-09T09:22:54.568Z,10.62
2023-04-09T09:25:26.243Z,10.20
2023-04-09T09:27:55.668Z,10.76
2023-04-09T09:30:27.995Z,11.19
2023-04-09T09:33:07.814Z,11.63
2023-04-09T09:35:51.400Z,12.03
2023-04-09T09:38:20.085Z,11.99
2023-04-09T09:40:48.926Z,11.82
2023-04-09T09:43:17.294Z,11.81
2023-04-09T09:45:47.790Z,11.65
2023-04-09T09:48:21.303Z,11.19
2023-04-09T09:50:50.740Z,11.36
2023-04-09T09:53:24.008Z,12.01
2023-04-09T09:55:55.530Z,12.30
2023-04-09T09:58:28.268Z,12.43
2023-04-09T10:00:57.804Z,12.07
2023-04-09T10:03:30.978Z,11.65
2023-04-09T10:06:00.384Z,12.13
2023-04-09T10:08:30.934Z,12.27
2023-04-09T10:10:59.377Z,12.42
2023-04-09T10:13:32.713Z,12.61
2023-04-09T10:16:01.792Z,12.53
2023-04-09T10:18:35.694Z,12.76
2023-04-09T10:21:11.683Z,12.62
2023-04-09T10:23:41.344Z,12.05
2023-04-09T10:26:11.365Z,12.42
2023-04-09T10:28:39.405Z,12.79
2023-04-09T10:31:08.962Z,13.42
2023-04-09T10:33:40.127Z,13.74
2023-04-09T10:36:13.815Z,14.09
2023-04-09T10:38:43.030Z,14.46
2023-04-09T10:41:23.070Z,14.20
2023-04-09T10:43:52.170Z,14.13
2023-04-09T10:46:31.001Z,14.19
2023-04-09T10:49:16.950Z,14.69
2023-04-09T10:51:52.049Z,14.74
2023-04-09T10:54:47.139Z,14.50
2023-04-09T10:57:20.862Z,14.14
2023-04-09T10:59:51.224Z,14.30
2023-04-09T11:02:51.054Z,14.27
2023-04-09T11:05:34.207Z,14.13
2023-04-09T11:08:07.973Z,14.10
2023-04-09T11:10:36.433Z,14.14
2023-04-09T11:13:04.991Z,13.93
2023-04-09T11:15:33.936Z,13.73
2023-04-09T11:18:03.374Z,13.75
2023-04-09T11:20:35.946Z,13.76
2023-04-09T11:23:04.420Z,13.55
2023-04-09T11:25:35.441Z,13.50
2023-04-09T11:28:05.497Z,13.53
2023-04-09T11:30:34.515Z,13.44
2023-04-09T11:33:03.412Z,12.76
2023-04-09T11:35:35.744Z,12.91
2023-04-09T11:38:09.592Z,12.89
2023-04-09T11:40:43.586Z,12.42
2023-04-09T11:43:12.160Z,13.20
2023-04-09T11:45:40.318Z,13.04
2023-04-09T11:48:08.622Z,13.21
2023-04-09T11:50:38.872Z,13.26
2023-04-09T11:53:18.127Z,13.15
2023-04-09T11:55:48.875Z,13.23
2023-04-09T11:58:16.875Z,13.12
2023-04-09T12:00:45.717Z,12.90
2023-04-09T12:03:16.444Z,13.13
2023-04-09T12:05:51.142Z,13.14
2023-04-09T12:08:25.033Z,13.10
2023-04-09T12:10:54.114Z,13.36
2023-04-09T12:13:22.953Z,13.70
2023-04-09T12:15:51.884Z,14.14
2023-04-09T12:18:22.826Z,14.33
2023-04-09T12:20:52.264Z,14.43
2023-04-09T12:23:20.156Z,14.40
2023-04-09T12:25:48.232Z,14.52
2023-04-09T12:28:18.892Z,14.62
2023-04-09T12:30:49.131Z,14.75
2023-04-09T12:33:17.809Z,14.83
2023-04-09T12:35:46.481Z,14.67
2023-04-09T12:38:16.093Z,14.79
2023-04-09T12:40:44.476Z,14.75
2023-04-09T12:43:12.488Z,14.82
2023-04-09T12:45:41.116Z,14.83
2023-04-09T12:48:09.479Z,14.94
2023-04-09T12:50:38.461Z,14.41
2023-04-09T12:53:06.441Z,14.56
2023-04-09T12:55:36.254Z,14.63
2023-04-09T12:58:08.018Z,14.76
2023-04-09T13:00:36.565Z,14.56
2023-04-09T13:03:04.929Z,13.94
2023-04-09T13:05:35.677Z,14.16
2023-04-09T13:08:03.883Z,14.13
2023-04-09T13:10:32.457Z,13.45
2023-04-09T13:13:01.940Z,12.99
2023-04-09T13:15:30.093Z,12.81
2023-04-09T13:17:58.073Z,12.79
2023-04-09T13:20:26.238Z,12.99
2023-04-09T13:22:54.297Z,12.89
2023-04-09T13:25:22.384Z,12.47
2023-04-09T13:27:50.689Z,12.34
2023-04-09T13:30:20.875Z,12.28
2023-04-09T13:32:49.477Z,12.31
2023-04-09T13:35:19.371Z,12.39
2023-04-09T13:37:47.530Z,12.74
2023-04-09T13:40:16.423Z,12.75
2023-04-09T13:42:44.754Z,13.02
2023-04-09T13:45:13.408Z,13.13
2023-04-09T13:47:43.353Z,13.18
2023-04-09T13:50:13.176Z,13.25
2023-04-09T13:52:41.137Z,13.56
2023-04-09T13:55:10.666Z,13.29
2023-04-09T13:57:39.057Z,13.32
2023-04-09T14:00:08.573Z,13.23
2023-04-09T14:02:36.646Z,13.38
2023-04-09T14:05:08.565Z,13.27
2023-04-09T14:07:36.754Z,13.59
2023-04-09T14:10:04.938Z,13.68
2023-04-09T14:12:32.877Z,13.87
2023-04-09T14:15:01.023Z,14.03
2023-04-09T14:17:28.940Z,14.09
2023-04-09T14:19:58.024Z,13.69
2023-04-09T14:22:28.608Z,13.91
2023-04-09T14:24:56.505Z,13.89
2023-04-09T14:27:24.531Z,13.76
2023-04-09T14:29:53.138Z,13.70
2023-04-09T14:32:21.974Z,13.78
2023-04-09T14:34:49.933Z,13.43
2023-04-09T14:37:17.862Z,13.75
2023-04-09T14:39:47.642Z,13.74
2023-04-09T14:42:15.546Z,13.72
2023-04-09T14:44:43.530Z,13.76
2023-04-09T14:47:11.611Z,13.77
2023-04-09T14:49:39.771Z,13.94
2023-04-09T14:52:07.983Z,13.62
2023-04-09T14:54:37.954Z,13.40
2023-04-09T14:57:07.476Z,13.57
2023-04-09T14:59:37.475Z,13.35
2023-04-09T15:02:06.413Z,13.51
2023-04-09T15:04:34.498Z,13.47
2023-04-09T15:07:02.448Z,13.50
2023-04-09T15:09:30.963Z,13.62
2023-04-09T15:11:58.871Z,13.64
2023-04-09T15:14:33.671Z,13.57
2023-04-09T15:17:01.828Z,13.38
2023-04-09T15:19:29.815Z,13.13
2023-04-09T15:21:57.831Z,13.20
2023-04-09T15:24:25.950Z,13.28
2023-04-09T15:26:54.013Z,13.26
2023-04-09T15:29:22.134Z,13.23
2023-04-09T15:31:53.941Z,13.09
2023-04-09T15:34:22.351Z,12.84
2023-04-09T15:36:50.436Z,12.39
2023-04-09T15:39:18.420Z,11.88
2023-04-09T15:41:48.008Z,11.48
2023-04-09T15:44:15.939Z,11.23
2023-04-09T15:46:44.012Z,11.03
2023-04-09T15:49:13.944Z,10.92
2023-04-09T15:51:42.071Z,10.91
2023-04-09T15:54:10.192Z,10.86
2023-04-09T15:56:40.504Z,10.76
2023-04-09T15:59:08.562Z,10.69
2023-04-09T16:01:37.900Z,10.64
2023-04-09T16:04:06.289Z,10.59
2023-04-09T16:06:35.693Z,10.57
2023-04-09T16:09:04.174Z,10.48
2023-04-09T16:11:32.786Z,10.54
2023-04-09T16:14:01.140Z,10.57
2023-04-09T16:16:29.199Z,10.52
2023-04-09T16:18:57.765Z,10.44
2023-04-09T16:21:25.957Z,10.47
2023-04-09T16:23:56.200Z,10.45
2023-04-09T16:26:24.591Z,10.34
2023-04-09T16:28:52.853Z,10.44
2023-04-09T16:31:21.635Z,10.46
2023-04-09T16:33:49.714Z,10.45
2023-04-09T16:36:17.768Z,10.00
2023-04-09T16:38:45.768Z,10.48
2023-04-09T16:41:15.226Z,10.48
2023-04-09T16:43:43.235Z,10.44
2023-04-09T16:46:11.363Z,10.46
2023-04-09T16:48:41.932Z,10.38
2023-04-09T16:51:10.475Z,10.31
2023-04-09T16:53:38.984Z,10.05
2023-04-09T16:56:08.047Z,10.19
2023-04-09T16:58:37.989Z,10.21
2023-04-09T17:01:06.495Z,10.18
2023-04-09T17:03:35.419Z,10.19
2023-04-09T17:06:05.003Z,10.29
2023-04-09T17:08:33.639Z,10.35
2023-04-09T17:11:03.221Z,10.35
2023-04-09T17:13:31.686Z,10.36
2023-04-09T17:16:02.592Z,10.42
2023-04-09T17:18:30.716Z,10.25
2023-04-09T17:20:59.427Z,10.43
2023-04-09T17:23:29.210Z,10.39
2023-04-09T17:25:57.206Z,10.39
2023-04-09T17:28:28.722Z,10.34
2023-04-09T17:30:57.005Z,10.24
2023-04-09T17:33:28.063Z,10.25
2023-04-09T17:35:57.767Z,10.26
2023-04-09T17:38:27.143Z,10.25
2023-04-09T17:40:55.515Z,10.11
2023-04-09T17:43:23.960Z,10.12
2023-04-09T17:45:52.395Z,10.04
2023-04-09T17:48:20.787Z,10.07
2023-04-09T17:50:50.208Z,10.06
2023-04-09T17:53:18.075Z,10.12
2023-04-09T17:55:50.960Z,10.14
2023-04-09T17:58:19.093Z,10.10
2023-04-09T18:00:47.208Z,9.86
2023-04-09T18:03:16.009Z,9.62
2023-04-09T18:05:44.415Z,9.84
2023-04-09T18:08:14.043Z,9.76
2023-04-09T18:10:43.714Z,9.62
2023-04-09T18:13:11.996Z,9.67
2023-04-09T18:15:40.390Z,9.68
2023-04-09T18:18:09.131Z,9.71
2023-04-09T18:20:37.069Z,9.78
2023-04-09T18:23:05.054Z,9.76
2023-04-09T18:25:34.940Z,9.77
2023-04-09T18:28:02.995Z,9.68
2023-04-09T18:30:31.339Z,9.72
2023-04-09T18:32:59.991Z,9.75
2023-04-09T18:35:28.915Z,9.73
2023-04-09T18:37:57.258Z,9.71
2023-04-09T18:40:25.325Z,9.71
2023-04-09T18:42:55.312Z,9.69
2023-04-09T18:45:23.561Z,9.60
2023-04-09T18:47:52.488Z,9.70
2023-04-09T18:50:20.911Z,9.71
2023-04-09T18:52:48.877Z,9.80
2023-04-09T18:55:18.373Z,9.72
2023-04-09T18:57:47.461Z,9.68
2023-04-09T19:00:17.105Z,9.53
2023-04-09T19:02:45.597Z,9.64
2023-04-09T19:05:14.255Z,9.61
2023-04-09T19:07:42.288Z,9.51
2023-04-09T19:10:11.744Z,9.55
2023-04-09T19:12:47.686Z,9.53
2023-04-09T19:15:17.646Z,9.55
2023-04-09T19:17:45.656Z,9.60
2023-04-09T19:20:13.787Z,9.57
2023-04-09T19:22:42.035Z,9.61
2023-04-09T19:25:11.025Z,9.62
2023-04-09T19:27:39.943Z,9.64
2023-04-09T19:30:09.546Z,9.39
2023-04-09T19:32:39.785Z,9.53
2023-04-09T19:35:09.413Z,9.45
2023-04-09T19:37:37.777Z,9.49
2023-04-09T19:40:07.172Z,9.46
2023-04-09T19:42:37.782Z,9.42
2023-04-09T19:45:07.158Z,9.45
2023-04-09T19:47:35.569Z,9.44
2023-04-09T19:50:05.500Z,9.34
2023-04-09T19:52:33.406Z,9.31
2023-04-09T19:55:02.095Z,9.30
2023-04-09T19:57:31.997Z,8.95
2023-04-09T20:00:00.139Z,9.11
2023-04-09T20:02:29.890Z,9.12
2023-04-09T20:04:58.332Z,9.15
2023-04-09T20:07:28.427Z,9.08
2023-04-09T20:09:56.346Z,9.18
2023-04-09T20:12:28.455Z,9.08
2023-04-09T20:14:56.833Z,9.12
2023-04-09T20:17:24.864Z,8.41
2023-04-09T20:19:55.518Z,8.98
2023-04-09T20:22:24.076Z,8.96
2023-04-09T20:24:55.590Z,8.91
2023-04-09T20:27:24.017Z,8.88
2023-04-09T20:29:52.942Z,8.88
2023-04-09T20:32:21.405Z,8.81
2023-04-09T20:34:50.125Z,8.83
2023-04-09T20:37:18.058Z,8.76
2023-04-09T20:39:46.047Z,8.76
2023-04-09T20:42:15.659Z,8.69
2023-04-09T20:44:45.029Z,8.72
2023-04-09T20:47:13.203Z,8.63
2023-04-09T20:49:42.729Z,8.68
2023-04-09T20:52:12.117Z,8.69
2023-04-09T20:54:40.493Z,8.62
2023-04-09T20:57:08.674Z,8.71
2023-04-09T20:59:38.492Z,8.83
2023-04-09T21:02:08.966Z,8.84
2023-04-09T21:04:37.079Z,8.97
2023-04-09T21:07:04.997Z,8.95
2023-04-09T21:09:34.166Z,8.97
2023-04-09T21:12:03.215Z,8.90
2023-04-09T21:14:31.622Z,8.67
2023-04-09T21:17:01.148Z,8.98
2023-04-09T21:19:29.195Z,8.84
2023-04-09T21:21:57.797Z,8.68
2023-04-09T21:24:26.936Z,8.59
2023-04-09T21:26:55.141Z,8.49
2023-04-09T21:29:23.412Z,8.42
2023-04-09T21:31:51.975Z,8.41
2023-04-09T21:34:22.926Z,8.27
2023-04-09T21:36:51.446Z,8.32
2023-04-09T21:39:20.234Z,8.30
2023-04-09T21:41:49.983Z,8.20
2023-04-09T21:44:18.509Z,8.16
2023-04-09T21:46:47.639Z,8.03
2023-04-09T21:49:16.108Z,8.03
2023-04-09T21:51:47.900Z,8.07
2023-04-09T21:54:15.887Z,8.04
2023-04-09T21:56:44.042Z,7.97
2023-04-09T21:59:12.060Z,7.94
2023-04-09T22:01:41.658Z,7.89
2023-04-09T22:04:09.825Z,7.78
2023-04-09T22:06:40.296Z,7.77
2023-04-09T22:09:10.101Z,7.76
2023-04-09T22:11:41.312Z,7.64
2023-04-09T22:14:09.340Z,7.60
2023-04-09T22:16:37.513Z,7.53
2023-04-09T22:19:05.859Z,7.37
2023-04-09T22:21:33.916Z,7.56
2023-04-09T22:24:03.218Z,7.36
2023-04-09T22:26:32.891Z,7.51
2023-04-09T22:29:01.123Z,7.57
2023-04-09T22:31:29.213Z,7.61
2023-04-09T22:34:00.121Z,7.54
2023-04-09T22:36:31.195Z,7.56
2023-04-09T22:38:59.262Z,7.51
2023-04-09T22:41:27.764Z,7.45
2023-04-09T22:43:57.791Z,7.47
2023-04-09T22:46:25.922Z,7.42
2023-04-09T22:48:54.005Z,7.05
2023-04-09T22:51:22.175Z,7.29
2023-04-09T22:53:50.434Z,7.33
2023-04-09T22:56:19.646Z,7.62
2023-04-09T22:58:47.765Z,7.74
2023-04-09T23:01:22.231Z,7.63
2023-04-09T23:03:51.065Z,7.62
2023-04-09T23:06:19.898Z,7.79
2023-04-09T23:08:48.126Z,7.81
2023-04-09T23:11:16.563Z,7.80
2023-04-09T23:13:44.456Z,7.80
2023-04-09T23:16:12.618Z,7.85
2023-04-09T23:18:41.977Z,8.00
2023-04-09T23:21:11.349Z,7.52
2023-04-09T23:23:40.461Z,7.88
2023-04-09T23:26:08.849Z,7.81
2023-04-09T23:28:37.336Z,7.85
2023-04-09T23:31:05.704Z,7.77
2023-04-09T23:33:34.761Z,7.80
2023-04-09T23:36:04.644Z,7.81
2023-04-09T23:38:34.185Z,7.80
2023-04-09T23:41:02.426Z,7.67
2023-04-09T23:43:30.350Z,7.68
2023-04-09T23:45:58.901Z,7.58
2023-04-09T23:48:27.709Z,7.55
2023-04-09T23:50:55.689Z,7.47
2023-04-09T23:53:25.012Z,7.45
2023-04-09T23:55:53.151Z,7.43
2023-04-09T23:58:21.511Z,7.39
